• Join FlightAware (Why Join?)
  • Login
  • US Flag 
05:05PM EST


 

Airport Tracker/Info


-or-


 

Live Flight TrackerFlight Track Log ✈ SWA59 ✈ 03-May-2013 ✈ KSTL - KDAL

Flight Track Log - Related Links

Times and Time Zones

All times are in EDT time to prevent confusion due to time zone crossing. See the SWA59 flight status page for this flight to view local times or setup timezone preferences in your user account.

Time Position Orientation Groundspeed Altitude Reporting Facility
EDT Latitude Longitude Course Direction KTS MPH feet Rate Location/Type
08:04PM 38.7303 -90.5658 223° Southwest 245 282 6,600  Level Kansas City Center
08:05PM 38.6689 -90.6117 210° Southwest 256 295 10,300 2,940 Climbing Kansas City Center
08:06PM 38.5986 -90.6756 215° Southwest 295 339 12,700 2,640 Climbing Kansas City Center
08:07PM 38.3575 -90.8351 238° Southwest  Level FlightAware Approximate
08:07PM 38.5253 -90.7503 219° Southwest 323 372 15,800  Level Kansas City Center
08:08PM 38.2943 -90.9484 233° Southwest  Level FlightAware Approximate
08:08PM 38.4333 -90.8436 219° Southwest 342 394 19,400  Level Kansas City Center
08:09PM 38.3531 -90.9256 219° Southwest 358 412 21,900 2,340 Climbing Kansas City Center
08:10PM 38.2656 -91.0089 217° Southwest 387 445 24,300 2,100 Climbing Kansas City Center
08:11PM 38.1739 -91.0886 214° Southwest 397 457 26,300 1,860 Climbing Kansas City Center
08:12PM 38.0722 -91.1772 214° Southwest 414 476 28,200 1,740 Climbing Kansas City Center
08:13PM 37.9772 -91.2756 219° Southwest 434 499 30,000 1,800 Climbing Kansas City Center
08:14PM 37.8883 -91.3947 227° Southwest 457 526 32,000 2,220 Climbing Kansas City Center
08:15PM 37.8033 -91.5089 227° Southwest 448 516 34,600 1,980 Climbing Kansas City Center
08:16PM 37.7206 -91.6172 226° Southwest 432 497 36,200 1,260 Climbing Kansas City Center
08:17PM 37.6361 -91.7278 226° Southwest 431 496 37,300 1,260 Climbing Kansas City Center
08:18PM 37.5328 -91.8564 225° Southwest 431 496 38,900 1,020 Climbing Kansas City Center
08:19PM 37.4444 -91.9608 223° Southwest 430 495 39,500 480 Climbing Kansas City Center
08:20PM 37.3531 -92.0672 223° Southwest 438 504 39,900 240 Climbing Kansas City Center
08:21PM 37.2608 -92.1733 222° Southwest 443 510 40,000  Climbing Kansas City Center
08:22PM 37.1700 -92.2789 223° Southwest 443 510 40,000  Level Kansas City Center
08:23PM 37.0789 -92.3850 223° Southwest 443 510 40,000  Level Kansas City Center
08:24PM 36.9864 -92.4906 222° Southwest 445 512 40,000  Level Kansas City Center
08:25PM 36.8956 -92.5961 223° Southwest 444 511 40,000  Level Kansas City Center
08:26PM 36.8047 -92.6983 222° Southwest 439 505 40,000  Level Kansas City Center
08:27PM 36.7144 -92.8000 222° Southwest 437 503 40,000  Level Kansas City Center
08:28PM 36.6244 -92.9014 222° Southwest 435 501 40,000  Level Kansas City Center
08:29PM 36.5178 -93.0267 223° Southwest 441 507 40,000  Level Memphis Center
08:30PM 36.4281 -93.1269 222° Southwest 441 507 40,000  Level Memphis Center
08:31PM 36.3383 -93.2269 222° Southwest 441 507 40,000  Level Memphis Center
08:32PM 36.2378 -93.3367 221° Southwest 441 507 40,000  Level Memphis Center
08:33PM 36.1456 -93.4386 222° Southwest 441 507 40,000  Level Memphis Center
08:34PM 36.0578 -93.5381 222° Southwest 441 507 40,000  Level Memphis Center
08:35PM 35.9675 -93.6372 222° Southwest 441 507 40,000  Level Memphis Center
08:36PM 35.8772 -93.7386 222° Southwest 441 507 40,000  Level Memphis Center
08:37PM 35.7847 -93.8372 221° Southwest 441 507 40,000  Level Memphis Center
08:38PM 35.6944 -93.9358 222° Southwest 447 514 40,000  Level Memphis Center
08:39PM 35.6017 -94.0389 222° Southwest 453 521 40,000  Level Memphis Center
08:40PM 35.5089 -94.1419 222° Southwest 453 521 40,000  Level Memphis Center
08:41PM 35.4142 -94.2419 221° Southwest 453 521 40,000  Level Memphis Center
08:42PM 35.3233 -94.3422 222° Southwest 448 516 40,000  Level Memphis Center
08:43PM 35.2283 -94.4444 221° Southwest 448 516 40,000  Level Memphis Center
08:44PM 35.1375 -94.5442 222° Southwest 448 516 40,000  Level Memphis Center
08:46PM 35.0483 -94.6417 222° Southwest 439 505 40,000  Level Fort Worth Center
08:47PM 34.9544 -94.7433 222° Southwest 439 505 40,000  Level Fort Worth Center
08:48PM 34.8586 -94.8503 222° Southwest 439 505 40,000  Level Fort Worth Center
08:49PM 34.7644 -94.9389 218° Southwest 439 505 40,000  Level Fort Worth Center
08:50PM 34.6681 -95.0275 217° Southwest 434 499 40,000  Level Fort Worth Center
08:51PM 34.5739 -95.1186 219° Southwest 434 499 40,000 -420 Level Fort Worth Center
08:52PM 34.4794 -95.2067 218° Southwest 434 499 39,200  Descending Fort Worth Center
08:53PM 34.3808 -95.2872 214° Southwest 434 499 40,000 -2,100 Climbing Fort Worth Center
08:54PM 34.2669 -95.3503 205° Southwest 434 499 35,100 -4,020 Descending Fort Worth Center
08:55PM 34.1553 -95.4081 203° Southwest 445 512 32,000 -2,700 Descending Fort Worth Center
08:56PM 34.0606 -95.4956 217° Southwest 439 505 29,700 -2,340 Descending Fort Worth Center
08:57PM 33.9764 -95.5850 221° Southwest 425 489 27,400 -2,220 Descending Fort Worth Center
08:58PM 33.8919 -95.6694 220° Southwest 411 473 25,300 -2,100 Descending Fort Worth Center
08:59PM 33.8181 -95.7508 222° Southwest 390 449 23,200 -2,040 Descending Fort Worth Center
09:00PM 33.7461 -95.8297 222° Southwest 369 425 21,300 -1,980 Descending Fort Worth Center
09:01PM 33.6678 -95.9086 220° Southwest 363 418 19,300 -1,860 Descending Fort Worth Center
09:02PM 33.6058 -95.9769 223° Southwest 347 399 17,600 -1,980 Descending Fort Worth Center
09:03PM 33.5275 -96.0603 222° Southwest 347 399 15,400 -2,100 Descending Fort Worth Center
09:04PM 33.4614 -96.1286 221° Southwest 354 407 13,500 -2,040 Descending Fort Worth Center
09:05PM 33.3850 -96.2069 221° Southwest 348 400 11,400 -1,740 Descending Fort Worth Center
09:06PM 33.3250 -96.2722 222° Southwest 328 377 10,100 -1,200 Descending Fort Worth Center
09:07PM 33.2608 -96.3403 222° Southwest 299 344 9,000 -600 Descending Fort Worth Center
09:08PM 33.2028 -96.3881 215° Southwest 286 329 9,000 -840 Level Fort Worth Center
09:09PM 33.1261 -96.4361 208° Southwest 286 329 7,400 -1,440 Descending Fort Worth Center
09:10PM 33.0658 -96.4789 211° Southwest 291 335 6,200 -1,440 Descending Fort Worth Center
09:11PM 33.0017 -96.5439 220° Southwest 284 327 4,600 -1,500 Descending Fort Worth Center
09:12PM 32.9478 -96.5989 221° Southwest 273 314 3,200 -840 Descending Fort Worth Center
09:13PM 32.8936 -96.6539 220° Southwest 263 303 3,000 -120 Descending Fort Worth Center
09:14PM 32.8419 -96.7061 220° Southwest 252 290 3,000 -420 Level Fort Worth Center
09:14PM 32.8000 -96.7500 221° Southwest 194 223 2,300 -720 Descending Dallas / Fort Worth TRACON
09:16PM 32.8000 -96.8000 270° West 130 150 1,600 -840 Descending Dallas / Fort Worth TRACON
09:16PM 32.8333 -96.8333 320° Northwest 130 150 700 -1,020 Descending Dallas / Fort Worth TRACON